createdAt,value
2023-04-07T00:01:47.735Z,1.96
2023-04-07T00:04:14.379Z,1.87
2023-04-07T00:06:40.993Z,1.71
2023-04-07T00:09:07.438Z,1.85
2023-04-07T00:11:33.911Z,2.10
2023-04-07T00:14:00.361Z,1.91
2023-04-07T00:16:27.300Z,1.83
2023-04-07T00:18:53.819Z,1.98
2023-04-07T00:21:20.263Z,2.24
2023-04-07T00:23:47.565Z,2.40
2023-04-07T00:26:14.020Z,2.51
2023-04-07T00:28:40.597Z,2.57
2023-04-07T00:31:07.101Z,2.55
2023-04-07T00:33:33.517Z,2.48
2023-04-07T00:35:59.982Z,2.47
2023-04-07T00:38:26.422Z,2.51
2023-04-07T00:40:59.458Z,2.53
2023-04-07T00:43:26.521Z,2.50
2023-04-07T00:45:53.818Z,2.47
2023-04-07T00:48:21.384Z,2.47
2023-04-07T00:50:47.837Z,2.52
2023-04-07T00:53:14.334Z,2.46
2023-04-07T00:55:41.290Z,2.39
2023-04-07T00:58:07.836Z,2.38
2023-04-07T01:00:48.565Z,2.46
2023-04-07T01:03:29.203Z,2.35
2023-04-07T01:06:01.021Z,2.43
2023-04-07T01:08:27.364Z,2.41
2023-04-07T01:10:59.809Z,2.52
2023-04-07T01:13:42.864Z,2.45
2023-04-07T01:16:31.997Z,2.34
2023-04-07T01:19:08.848Z,2.34
2023-04-07T01:21:37.807Z,2.44
2023-04-07T01:24:18.440Z,2.39
2023-04-07T01:26:47.074Z,2.45
2023-04-07T01:29:32.339Z,2.30
2023-04-07T01:32:01.505Z,2.21
2023-04-07T01:34:30.324Z,2.25
2023-04-07T01:36:59.289Z,2.26
2023-04-07T01:39:27.614Z,2.22
2023-04-07T01:41:56.052Z,2.08
2023-04-07T01:44:22.972Z,2.15
2023-04-07T01:46:52.947Z,2.14
2023-04-07T01:49:20.340Z,2.08
2023-04-07T01:51:50.613Z,1.95
2023-04-07T01:54:18.295Z,1.83
2023-04-07T01:56:45.269Z,1.68
2023-04-07T01:59:11.785Z,1.77
2023-04-07T02:01:38.550Z,1.64
2023-04-07T02:04:08.124Z,1.77
2023-04-07T02:07:01.362Z,1.63
2023-04-07T02:09:31.719Z,1.48
2023-04-07T02:12:00.679Z,1.56
2023-04-07T02:14:28.056Z,1.49
2023-04-07T02:16:56.086Z,1.40
2023-04-07T02:19:22.797Z,1.29
2023-04-07T02:21:51.509Z,1.44
2023-04-07T02:24:21.868Z,1.51
2023-04-07T02:26:48.432Z,1.59
2023-04-07T02:29:14.899Z,1.62
2023-04-07T02:31:41.354Z,1.29
2023-04-07T02:34:07.856Z,1.16
2023-04-07T02:36:34.274Z,1.16
2023-04-07T02:39:00.840Z,1.14
2023-04-07T02:41:27.472Z,0.98
2023-04-07T02:43:54.136Z,0.95
2023-04-07T02:46:20.861Z,0.84
2023-04-07T02:48:47.335Z,0.80
2023-04-07T02:51:13.746Z,0.55
2023-04-07T02:53:40.146Z,0.55
2023-04-07T02:56:06.913Z,0.74
2023-04-07T02:58:33.342Z,0.88
2023-04-07T03:00:59.742Z,1.09
2023-04-07T03:03:26.257Z,1.04
2023-04-07T03:05:52.719Z,0.80
2023-04-07T03:08:19.167Z,0.73
2023-04-07T03:10:45.764Z,0.94
2023-04-07T03:13:16.267Z,1.04
2023-04-07T03:15:43.349Z,1.18
2023-04-07T03:18:09.874Z,1.31
2023-04-07T03:20:36.375Z,1.19
2023-04-07T03:23:02.843Z,1.05
2023-04-07T03:25:29.348Z,1.05
2023-04-07T03:27:55.928Z,1.04
2023-04-07T03:30:22.314Z,1.24
2023-04-07T03:32:48.740Z,1.13
2023-04-07T03:35:15.212Z,1.25
2023-04-07T03:37:41.629Z,1.23
2023-04-07T03:40:08.515Z,1.23
2023-04-07T03:42:34.963Z,1.22
2023-04-07T03:45:01.625Z,1.24
2023-04-07T03:47:28.127Z,1.20
2023-04-07T03:49:54.528Z,1.30
2023-04-07T03:52:20.911Z,1.06
2023-04-07T03:54:47.297Z,1.10
2023-04-07T03:57:13.773Z,1.18
2023-04-07T03:59:40.357Z,1.15
2023-04-07T04:02:07.124Z,1.09
2023-04-07T04:04:33.658Z,0.99
2023-04-07T04:07:00.188Z,0.79
2023-04-07T04:09:26.621Z,0.55
2023-04-07T04:11:53.029Z,0.48
2023-04-07T04:14:19.507Z,0.68
2023-04-07T04:16:45.888Z,0.56
2023-04-07T04:19:12.287Z,0.60
2023-04-07T04:21:38.779Z,0.54
2023-04-07T04:24:05.491Z,0.46
2023-04-07T04:26:31.953Z,0.40
2023-04-07T04:28:58.457Z,0.31
2023-04-07T04:31:24.981Z,0.24
2023-04-07T04:33:52.593Z,0.26
2023-04-07T04:36:19.349Z,0.18
2023-04-07T04:38:46.035Z,0.26
2023-04-07T04:41:12.451Z,0.30
2023-04-07T04:43:38.846Z,0.18
2023-04-07T04:46:05.523Z,0.17
2023-04-07T04:48:31.980Z,-0.05
2023-04-07T04:50:58.391Z,0.01
2023-04-07T04:53:24.910Z,-0.08
2023-04-07T04:55:53.088Z,-0.13
2023-04-07T04:58:20.749Z,-0.11
2023-04-07T05:00:47.182Z,-0.08
2023-04-07T05:03:13.830Z,-0.20
2023-04-07T05:05:40.424Z,-0.06
2023-04-07T05:08:07.329Z,-0.10
2023-04-07T05:10:33.781Z,-0.04
2023-04-07T05:13:00.275Z,-0.07
2023-04-07T05:15:27.081Z,0.04
2023-04-07T05:17:53.519Z,-0.15
2023-04-07T05:20:19.958Z,-0.22
2023-04-07T05:22:46.387Z,-0.06
2023-04-07T05:25:12.887Z,-0.21
2023-04-07T05:27:39.307Z,0.02
2023-04-07T05:30:06.553Z,-0.11
2023-04-07T05:32:32.989Z,-0.04
2023-04-07T05:34:59.416Z,0.11
2023-04-07T05:37:25.964Z,0.21
2023-04-07T05:39:52.374Z,0.27
2023-04-07T05:42:18.828Z,0.43
2023-04-07T05:44:45.570Z,0.31
2023-04-07T05:47:12.053Z,0.40
2023-04-07T05:49:40.836Z,0.20
2023-04-07T05:52:07.281Z,0.20
2023-04-07T05:54:33.699Z,0.23
2023-04-07T05:57:00.131Z,0.29
2023-04-07T05:59:26.552Z,0.39
2023-04-07T06:01:53.132Z,0.76
2023-04-07T06:04:19.616Z,0.74
2023-04-07T06:06:46.589Z,0.68
2023-04-07T06:09:12.974Z,0.87
2023-04-07T06:11:39.364Z,0.94
2023-04-07T06:14:05.915Z,1.03
2023-04-07T06:16:32.400Z,1.00
2023-04-07T06:18:58.833Z,1.12
2023-04-07T06:21:27.330Z,1.23
2023-04-07T06:23:53.775Z,1.22
2023-04-07T06:26:21.617Z,1.29
2023-04-07T06:28:48.109Z,1.66
2023-04-07T06:31:14.692Z,1.86
2023-04-07T06:33:41.215Z,2.03
2023-04-07T06:36:08.112Z,2.24
2023-04-07T06:38:34.533Z,1.96
2023-04-07T06:41:00.927Z,1.81
2023-04-07T06:43:27.375Z,1.94
2023-04-07T06:45:53.845Z,2.29
2023-04-07T06:48:20.317Z,2.47
2023-04-07T06:50:48.981Z,2.55
2023-04-07T06:53:15.433Z,2.46
2023-04-07T06:55:41.924Z,2.83
2023-04-07T06:58:08.464Z,3.07
2023-04-07T07:00:36.329Z,2.91
2023-04-07T07:03:02.929Z,3.30
2023-04-07T07:05:29.543Z,3.15
2023-04-07T07:07:56.179Z,3.32
2023-04-07T07:10:22.716Z,3.56
2023-04-07T07:12:49.940Z,3.23
2023-04-07T07:15:16.438Z,3.52
2023-04-07T07:17:42.939Z,3.49
2023-04-07T07:20:10.149Z,3.62
2023-04-07T07:22:36.895Z,3.60
2023-04-07T07:25:03.687Z,3.64
2023-04-07T07:27:30.478Z,3.43
2023-04-07T07:29:56.908Z,3.51
2023-04-07T07:32:23.365Z,3.84
2023-04-07T07:34:49.866Z,3.94
2023-04-07T07:37:16.536Z,3.85
2023-04-07T07:39:42.928Z,4.00
2023-04-07T07:42:09.419Z,4.10
2023-04-07T07:44:35.978Z,4.30
2023-04-07T07:47:02.431Z,3.92
2023-04-07T07:49:28.935Z,4.17
2023-04-07T07:51:55.847Z,3.94
2023-04-07T07:54:22.345Z,4.07
2023-04-07T07:56:49.087Z,4.11
2023-04-07T07:59:16.693Z,4.54
2023-04-07T08:01:44.357Z,4.57
2023-04-07T08:04:11.068Z,4.42
2023-04-07T08:06:37.719Z,4.37
2023-04-07T08:09:04.234Z,3.96
2023-04-07T08:11:30.791Z,4.48
2023-04-07T08:13:57.177Z,4.60
2023-04-07T08:16:24.052Z,4.73
2023-04-07T08:18:50.674Z,4.76
2023-04-07T08:21:17.187Z,4.71
2023-04-07T08:23:43.689Z,4.70
2023-04-07T08:26:10.121Z,4.96
2023-04-07T08:28:36.614Z,5.14
2023-04-07T08:31:03.243Z,4.79
2023-04-07T08:33:29.838Z,4.98
2023-04-07T08:35:56.748Z,5.08
2023-04-07T08:38:23.172Z,5.01
2023-04-07T08:41:01.382Z,5.09
2023-04-07T08:43:29.083Z,5.62
2023-04-07T08:45:57.667Z,5.56
2023-04-07T08:48:28.664Z,5.06
2023-04-07T08:50:56.409Z,5.23
2023-04-07T08:53:32.349Z,5.04
2023-04-07T08:56:00.086Z,4.92
2023-04-07T08:58:27.319Z,5.08
2023-04-07T09:00:53.925Z,4.88
2023-04-07T09:03:21.323Z,4.87
2023-04-07T09:05:51.221Z,5.21
2023-04-07T09:08:17.743Z,4.84
2023-04-07T09:10:44.194Z,4.69
2023-04-07T09:13:10.806Z,5.05
2023-04-07T09:15:38.898Z,5.10
2023-04-07T09:18:06.569Z,5.34
2023-04-07T09:20:59.748Z,4.88
2023-04-07T09:23:34.828Z,4.78
2023-04-07T09:26:18.220Z,4.86
2023-04-07T09:28:47.387Z,5.09
2023-04-07T09:31:14.027Z,5.28
2023-04-07T09:33:40.670Z,5.26
2023-04-07T09:36:07.872Z,5.41
2023-04-07T09:38:36.570Z,5.55
2023-04-07T09:41:10.512Z,5.62
2023-04-07T09:43:39.591Z,5.70
2023-04-07T09:46:16.923Z,5.64
2023-04-07T09:48:46.469Z,5.45
2023-04-07T09:51:18.452Z,5.57
2023-04-07T09:53:50.288Z,5.61
2023-04-07T09:56:23.981Z,5.76
2023-04-07T09:58:54.451Z,5.58
2023-04-07T10:01:21.954Z,5.59
2023-04-07T10:03:50.818Z,5.81
2023-04-07T10:06:17.891Z,5.77
2023-04-07T10:08:44.646Z,5.79
2023-04-07T10:11:11.131Z,5.79
2023-04-07T10:13:40.436Z,5.24
2023-04-07T10:16:08.056Z,5.83
2023-04-07T10:18:36.835Z,5.55
2023-04-07T10:21:07.805Z,5.68
2023-04-07T10:24:20.836Z,5.89
2023-04-07T10:27:01.496Z,5.61
2023-04-07T10:29:31.490Z,5.05
2023-04-07T10:31:59.798Z,5.24
2023-04-07T10:34:51.135Z,5.46
2023-04-07T10:37:21.198Z,5.41
2023-04-07T10:39:52.275Z,5.47
2023-04-07T10:42:37.106Z,5.69
2023-04-07T10:45:04.749Z,5.66
2023-04-07T10:47:31.346Z,5.69
2023-04-07T10:50:22.799Z,5.58
2023-04-07T10:53:11.043Z,5.62
2023-04-07T10:55:45.530Z,5.55
2023-04-07T10:58:30.881Z,5.15
2023-04-07T11:00:57.333Z,5.42
2023-04-07T11:03:25.003Z,5.35
2023-04-07T11:05:51.549Z,5.21
2023-04-07T11:08:34.533Z,5.29
2023-04-07T11:11:01.072Z,5.03
2023-04-07T11:13:27.808Z,5.09
2023-04-07T11:15:54.557Z,5.03
2023-04-07T11:18:23.744Z,4.83
2023-04-07T11:20:55.685Z,5.27
2023-04-07T11:23:23.865Z,5.29
2023-04-07T11:25:52.262Z,5.44
2023-04-07T11:28:19.089Z,5.71
2023-04-07T11:30:48.633Z,5.07
2023-04-07T11:33:17.675Z,5.17
2023-04-07T11:35:57.612Z,4.93
2023-04-07T11:38:27.171Z,4.55
2023-04-07T11:40:55.076Z,4.82
2023-04-07T11:43:26.484Z,5.09
2023-04-07T11:46:12.449Z,4.88
2023-04-07T11:48:40.791Z,4.98
2023-04-07T11:51:16.482Z,5.12
2023-04-07T11:53:43.233Z,5.24
2023-04-07T11:56:16.373Z,4.95
2023-04-07T11:58:50.307Z,4.86
2023-04-07T12:01:17.145Z,5.17
2023-04-07T12:03:59.500Z,5.09
2023-04-07T12:06:35.011Z,4.78
2023-04-07T12:09:02.776Z,4.66
2023-04-07T12:11:30.058Z,4.52
2023-04-07T12:13:57.070Z,4.38
2023-04-07T12:16:24.571Z,4.11
2023-04-07T12:18:54.518Z,4.39
2023-04-07T12:21:21.172Z,4.22
2023-04-07T12:23:48.735Z,4.09
2023-04-07T12:26:15.423Z,4.25
2023-04-07T12:28:41.924Z,4.33
2023-04-07T12:31:08.407Z,4.48
2023-04-07T12:33:34.842Z,4.66
2023-04-07T12:36:01.427Z,4.53
2023-04-07T12:38:28.787Z,4.85
2023-04-07T12:40:55.356Z,4.76
2023-04-07T12:43:21.894Z,5.09
2023-04-07T12:45:48.446Z,5.13
2023-04-07T12:48:16.238Z,5.08
2023-04-07T12:50:42.728Z,4.63
2023-04-07T12:53:09.286Z,4.42
2023-04-07T12:55:36.592Z,4.89
2023-04-07T12:58:03.376Z,4.85
2023-04-07T13:00:29.939Z,4.40
2023-04-07T13:02:56.609Z,4.54
2023-04-07T13:05:23.329Z,4.98
2023-04-07T13:07:49.999Z,4.99
2023-04-07T13:10:16.575Z,4.62
2023-04-07T13:12:43.228Z,4.44
2023-04-07T13:15:09.814Z,4.65
2023-04-07T13:17:39.010Z,4.46
2023-04-07T13:20:06.735Z,4.19
2023-04-07T13:22:35.717Z,4.44
2023-04-07T13:25:02.522Z,4.38
2023-04-07T13:27:29.034Z,4.77
2023-04-07T13:29:55.829Z,4.63
2023-04-07T13:32:23.487Z,4.62
2023-04-07T13:34:50.189Z,4.78
2023-04-07T13:37:17.215Z,4.79
2023-04-07T13:39:43.613Z,4.41
2023-04-07T13:42:12.504Z,4.33
2023-04-07T13:44:40.096Z,4.52
2023-04-07T13:47:06.673Z,4.44
2023-04-07T13:49:33.162Z,4.68
2023-04-07T13:51:59.632Z,4.72
2023-04-07T13:54:26.114Z,4.87
2023-04-07T13:56:52.775Z,4.54
2023-04-07T13:59:19.595Z,4.72
2023-04-07T14:01:46.154Z,4.83
2023-04-07T14:04:13.232Z,4.59
2023-04-07T14:06:41.760Z,4.84
2023-04-07T14:09:08.469Z,4.67
2023-04-07T14:11:36.822Z,4.87
2023-04-07T14:14:03.450Z,4.51
2023-04-07T14:16:30.320Z,4.80
2023-04-07T14:18:57.146Z,4.86
2023-04-07T14:21:24.004Z,4.92
2023-04-07T14:23:51.295Z,4.63
2023-04-07T14:26:17.845Z,4.68
2023-04-07T14:28:44.381Z,4.52
2023-04-07T14:31:15.762Z,4.63
2023-04-07T14:33:46.215Z,4.69
2023-04-07T14:36:15.896Z,4.97
2023-04-07T14:38:43.316Z,4.63
2023-04-07T14:41:10.647Z,4.53
2023-04-07T14:43:37.813Z,4.50
2023-04-07T14:46:04.296Z,4.63
2023-04-07T14:48:31.021Z,4.50
2023-04-07T14:51:08.323Z,4.89
2023-04-07T14:53:35.580Z,4.82
2023-04-07T14:56:05.505Z,4.74
2023-04-07T14:58:32.387Z,4.90
2023-04-07T15:00:58.923Z,4.50
2023-04-07T15:03:25.537Z,4.66
2023-04-07T15:05:52.178Z,4.85
2023-04-07T15:08:18.674Z,5.16
2023-04-07T15:10:45.140Z,4.96
2023-04-07T15:13:11.557Z,4.58
2023-04-07T15:15:38.104Z,4.47
2023-04-07T15:18:04.580Z,4.65
2023-04-07T15:20:31.063Z,4.93
2023-04-07T15:22:57.773Z,4.41
2023-04-07T15:25:24.304Z,4.73
2023-04-07T15:27:50.731Z,4.49
2023-04-07T15:30:17.175Z,4.69
2023-04-07T15:33:00.329Z,4.45
2023-04-07T15:35:27.515Z,4.72
2023-04-07T15:37:54.002Z,4.46
2023-04-07T15:40:20.936Z,4.71
2023-04-07T15:42:47.437Z,4.96
2023-04-07T15:45:13.832Z,4.77
2023-04-07T15:47:40.320Z,4.54
2023-04-07T15:50:07.592Z,4.68
2023-04-07T15:52:34.016Z,4.77
2023-04-07T15:55:00.547Z,4.78
2023-04-07T15:57:27.029Z,4.54
2023-04-07T15:59:53.468Z,5.07
2023-04-07T16:02:20.135Z,5.08
2023-04-07T16:04:48.055Z,4.97
2023-04-07T16:07:14.525Z,5.04
2023-04-07T16:09:40.994Z,4.73
2023-04-07T16:12:07.579Z,5.11
2023-04-07T16:14:34.073Z,4.90
2023-04-07T16:17:00.895Z,4.54
2023-04-07T16:19:27.947Z,4.66
2023-04-07T16:21:55.008Z,4.49
2023-04-07T16:24:22.030Z,4.76
2023-04-07T16:26:50.494Z,4.65
2023-04-07T16:29:18.090Z,4.59
2023-04-07T16:31:44.731Z,4.46
2023-04-07T16:34:12.338Z,4.32
2023-04-07T16:36:39.054Z,4.54
2023-04-07T16:39:05.663Z,4.68
2023-04-07T16:41:32.257Z,4.92
2023-04-07T16:43:58.710Z,4.95
2023-04-07T16:46:31.857Z,4.96
2023-04-07T16:48:58.349Z,4.78
2023-04-07T16:51:26.870Z,4.70
2023-04-07T16:53:53.277Z,4.72
2023-04-07T16:56:21.907Z,4.80
2023-04-07T16:58:49.341Z,4.59
2023-04-07T17:01:16.009Z,4.56
2023-04-07T17:03:42.690Z,4.32
2023-04-07T17:06:09.308Z,4.68
2023-04-07T17:08:36.873Z,4.64
2023-04-07T17:11:07.464Z,4.55
2023-04-07T17:13:34.227Z,4.43
2023-04-07T17:16:05.308Z,4.50
2023-04-07T17:18:33.034Z,4.68
2023-04-07T17:20:59.438Z,4.81
2023-04-07T17:23:27.514Z,4.73
2023-04-07T17:25:53.991Z,4.46
2023-04-07T17:28:20.425Z,4.42
2023-04-07T17:30:47.115Z,4.76
2023-04-07T17:33:13.577Z,4.89
2023-04-07T17:35:40.291Z,5.03
2023-04-07T17:38:07.157Z,4.77
2023-04-07T17:40:33.591Z,4.94
2023-04-07T17:43:00.213Z,4.95
2023-04-07T17:45:26.763Z,4.89
2023-04-07T17:47:53.355Z,4.95
2023-04-07T17:50:19.810Z,4.88
2023-04-07T17:52:46.752Z,4.78
2023-04-07T17:55:13.273Z,5.12
2023-04-07T17:57:42.071Z,4.63
2023-04-07T18:00:09.008Z,4.93
2023-04-07T18:02:35.959Z,4.67
2023-04-07T18:05:03.667Z,4.49
2023-04-07T18:07:30.388Z,4.52
2023-04-07T18:09:57.904Z,4.64
2023-04-07T18:12:24.539Z,4.30
2023-04-07T18:14:51.107Z,4.61
2023-04-07T18:17:17.640Z,4.53
2023-04-07T18:19:44.184Z,4.46
2023-04-07T18:22:10.818Z,4.42
2023-04-07T18:24:37.472Z,4.19
2023-04-07T18:27:04.136Z,4.32
2023-04-07T18:29:33.811Z,4.71
2023-04-07T18:32:00.445Z,4.46
2023-04-07T18:34:27.076Z,4.53
2023-04-07T18:36:53.975Z,4.61
2023-04-07T18:39:20.503Z,4.67
2023-04-07T18:41:48.294Z,4.33
2023-04-07T18:44:15.086Z,4.20
2023-04-07T18:46:41.876Z,4.09
2023-04-07T18:49:08.316Z,4.56
2023-04-07T18:51:34.893Z,4.28
2023-04-07T18:54:01.360Z,4.53
2023-04-07T18:56:28.400Z,4.42
2023-04-07T18:58:54.929Z,4.54
2023-04-07T19:01:21.729Z,4.59
2023-04-07T19:03:48.542Z,4.56
2023-04-07T19:06:16.439Z,4.78
2023-04-07T19:08:43.080Z,4.63
2023-04-07T19:11:10.064Z,4.64
2023-04-07T19:13:36.560Z,4.87
2023-04-07T19:16:03.218Z,4.73
2023-04-07T19:18:31.608Z,4.63
2023-04-07T19:20:58.049Z,4.72
2023-04-07T19:23:26.119Z,4.55
2023-04-07T19:25:52.680Z,4.52
2023-04-07T19:28:19.148Z,4.59
2023-04-07T19:30:45.871Z,4.57
2023-04-07T19:33:12.295Z,4.48
2023-04-07T19:35:41.631Z,4.38
2023-04-07T19:38:08.182Z,4.37
2023-04-07T19:40:36.333Z,4.52
2023-04-07T19:43:03.054Z,4.43
2023-04-07T19:45:29.486Z,4.46
2023-04-07T19:47:56.765Z,4.42
2023-04-07T19:50:23.442Z,4.32
2023-04-07T19:52:50.678Z,4.41
2023-04-07T19:55:17.148Z,4.49
2023-04-07T19:57:43.699Z,4.74
2023-04-07T20:00:11.096Z,4.26
2023-04-07T20:02:37.872Z,4.48
2023-04-07T20:05:04.980Z,4.20
2023-04-07T20:07:33.347Z,4.33
2023-04-07T20:09:59.929Z,4.43
2023-04-07T20:12:26.432Z,4.20
2023-04-07T20:14:52.876Z,4.27
2023-04-07T20:17:19.727Z,4.18
2023-04-07T20:19:47.081Z,4.29
2023-04-07T20:22:13.589Z,4.25
2023-04-07T20:24:40.222Z,4.17
2023-04-07T20:27:06.733Z,4.45
2023-04-07T20:29:33.168Z,4.58
2023-04-07T20:31:59.561Z,4.28
2023-04-07T20:34:26.046Z,4.03
2023-04-07T20:36:52.488Z,4.49
2023-04-07T20:39:19.029Z,4.32
2023-04-07T20:41:45.690Z,4.51
2023-04-07T20:44:12.204Z,4.64
2023-04-07T20:46:38.718Z,4.60
2023-04-07T20:49:07.635Z,4.57
2023-04-07T20:51:36.674Z,4.67
2023-04-07T20:54:03.778Z,4.77
2023-04-07T20:56:30.324Z,4.67
2023-04-07T20:58:56.771Z,4.76
2023-04-07T21:01:23.448Z,4.71
2023-04-07T21:03:50.066Z,4.66
2023-04-07T21:06:16.472Z,4.41
2023-04-07T21:08:42.853Z,4.45
2023-04-07T21:11:09.324Z,4.52
2023-04-07T21:13:36.027Z,4.70
2023-04-07T21:16:03.836Z,4.59
2023-04-07T21:18:30.694Z,4.29
2023-04-07T21:21:01.828Z,4.13
2023-04-07T21:23:28.394Z,4.11
2023-04-07T21:25:59.902Z,4.22
2023-04-07T21:28:26.387Z,4.28
2023-04-07T21:30:55.659Z,4.55
2023-04-07T21:33:22.672Z,4.60
2023-04-07T21:35:49.806Z,4.36
2023-04-07T21:38:16.470Z,4.27
2023-04-07T21:40:43.020Z,4.55
2023-04-07T21:43:09.391Z,4.52
2023-04-07T21:45:35.844Z,3.89
2023-04-07T21:48:02.339Z,3.74
2023-04-07T21:50:29.362Z,4.05
2023-04-07T21:52:55.832Z,4.28
2023-04-07T21:55:22.285Z,4.43
2023-04-07T21:57:50.213Z,4.45
2023-04-07T22:00:16.860Z,4.45
2023-04-07T22:02:43.848Z,4.22
2023-04-07T22:05:10.816Z,4.27
2023-04-07T22:07:37.664Z,4.30
2023-04-07T22:10:04.852Z,4.21
2023-04-07T22:12:31.337Z,4.40
2023-04-07T22:14:57.755Z,4.34
2023-04-07T22:17:24.254Z,3.97
2023-04-07T22:19:50.676Z,4.25
2023-04-07T22:22:17.167Z,4.00
2023-04-07T22:24:43.604Z,3.91
2023-04-07T22:27:10.341Z,4.01
2023-04-07T22:29:36.805Z,3.92
2023-04-07T22:32:03.268Z,3.75
2023-04-07T22:34:29.684Z,3.74
2023-04-07T22:36:56.055Z,3.77
2023-04-07T22:39:23.565Z,4.01
2023-04-07T22:41:49.978Z,4.48
2023-04-07T22:44:16.384Z,4.26
2023-04-07T22:46:42.944Z,4.23
2023-04-07T22:49:09.730Z,3.98
2023-04-07T22:51:36.746Z,3.99
2023-04-07T22:54:03.256Z,3.74
2023-04-07T22:56:29.658Z,3.95
2023-04-07T22:58:57.508Z,3.69
2023-04-07T23:01:24.008Z,4.11
2023-04-07T23:03:50.611Z,4.24
2023-04-07T23:06:17.101Z,4.28
2023-04-07T23:08:44.912Z,4.28
2023-04-07T23:11:11.420Z,4.13
2023-04-07T23:13:38.357Z,3.97
2023-04-07T23:16:06.337Z,4.28
2023-04-07T23:18:33.044Z,4.17
2023-04-07T23:20:59.466Z,4.41
2023-04-07T23:23:25.893Z,4.31
2023-04-07T23:25:52.339Z,4.18
2023-04-07T23:28:18.734Z,4.31
2023-04-07T23:30:45.476Z,4.15
2023-04-07T23:33:12.416Z,4.11
2023-04-07T23:35:38.878Z,4.32
2023-04-07T23:38:05.503Z,4.45
2023-04-07T23:40:31.990Z,4.70
2023-04-07T23:42:58.413Z,4.57
2023-04-07T23:45:24.895Z,4.58
2023-04-07T23:47:51.399Z,4.51
2023-04-07T23:50:17.980Z,4.15
2023-04-07T23:52:44.486Z,4.04
2023-04-07T23:55:11.086Z,3.98
2023-04-07T23:57:37.509Z,3.96
